createdAt,value
2019-01-27T00:02:00.000Z,6.3
2019-01-27T00:07:00.000Z,6.3
2019-01-27T00:12:00.000Z,6.2
2019-01-27T00:17:00.000Z,6.2
2019-01-27T00:22:00.000Z,6.1
2019-01-27T00:27:00.000Z,6.1
2019-01-27T00:32:00.000Z,6.1
2019-01-27T00:37:00.000Z,6.1
2019-01-27T00:42:00.000Z,6.1
2019-01-27T00:47:00.000Z,6.1
2019-01-27T00:52:00.000Z,6.1
2019-01-27T00:57:00.000Z,6.1
2019-01-27T01:02:00.000Z,6.0
2019-01-27T01:07:00.000Z,6.0
2019-01-27T01:12:00.000Z,6.0
2019-01-27T01:17:00.000Z,6.0
2019-01-27T01:22:00.000Z,6.1
2019-01-27T01:27:00.000Z,6.0
2019-01-27T01:32:00.000Z,5.9
2019-01-27T01:37:00.000Z,5.7
2019-01-27T01:42:00.000Z,5.4
2019-01-27T01:47:00.000Z,5.2
2019-01-27T01:52:00.000Z,4.9
2019-01-27T01:57:00.000Z,4.8
2019-01-27T02:02:00.000Z,4.6
2019-01-27T02:07:00.000Z,4.6
2019-01-27T02:12:00.000Z,4.5
2019-01-27T02:17:00.000Z,4.4
2019-01-27T02:22:00.000Z,4.3
2019-01-27T02:27:00.000Z,4.2
2019-01-27T02:32:00.000Z,4.2
2019-01-27T02:37:00.000Z,4.1
2019-01-27T02:42:00.000Z,4.1
2019-01-27T02:47:00.000Z,4.1
2019-01-27T02:52:00.000Z,4.0
2019-01-27T02:57:00.000Z,4.0
2019-01-27T03:02:00.000Z,4.0
2019-01-27T03:07:00.000Z,3.9
2019-01-27T03:12:00.000Z,3.9
2019-01-27T03:17:00.000Z,3.8
2019-01-27T03:22:00.000Z,3.7
2019-01-27T03:27:00.000Z,3.6
2019-01-27T03:32:00.000Z,3.5
2019-01-27T03:37:00.000Z,3.4
2019-01-27T03:42:00.000Z,3.4
2019-01-27T03:47:00.000Z,3.4
2019-01-27T03:52:00.000Z,3.4
2019-01-27T03:57:00.000Z,3.3
2019-01-27T04:02:00.000Z,3.3
2019-01-27T04:07:00.000Z,3.3
2019-01-27T04:12:00.000Z,3.2
2019-01-27T04:17:00.000Z,3.1
2019-01-27T04:22:00.000Z,3.1
2019-01-27T04:27:00.000Z,3.1
2019-01-27T04:32:00.000Z,3.0
2019-01-27T04:37:00.000Z,3.0
2019-01-27T04:42:00.000Z,3.1
2019-01-27T04:47:00.000Z,3.1
2019-01-27T04:52:00.000Z,3.2
2019-01-27T04:57:00.000Z,3.3
2019-01-27T05:02:00.000Z,3.4
2019-01-27T05:07:00.000Z,3.5
2019-01-27T05:12:00.000Z,3.5
2019-01-27T05:17:00.000Z,3.6
2019-01-27T05:22:00.000Z,3.6
2019-01-27T05:27:00.000Z,3.7
2019-01-27T05:32:00.000Z,3.7
2019-01-27T05:37:00.000Z,3.8
2019-01-27T05:42:00.000Z,3.8
2019-01-27T05:47:00.000Z,3.9
2019-01-27T05:53:00.000Z,3.9
2019-01-27T05:58:00.000Z,3.9
2019-01-27T06:03:00.000Z,3.9
2019-01-27T06:08:00.000Z,3.9
2019-01-27T06:13:00.000Z,3.8
2019-01-27T06:18:00.000Z,3.7
2019-01-27T06:23:00.000Z,3.6
2019-01-27T06:28:00.000Z,3.5
2019-01-27T06:33:00.000Z,3.4
2019-01-27T06:38:00.000Z,3.2
2019-01-27T06:43:00.000Z,3.0
2019-01-27T06:48:00.000Z,2.8
2019-01-27T06:53:00.000Z,2.6
2019-01-27T06:58:00.000Z,2.3
2019-01-27T07:03:00.000Z,2.0
2019-01-27T07:08:00.000Z,1.7
2019-01-27T07:13:00.000Z,1.5
2019-01-27T07:18:00.000Z,1.2
2019-01-27T07:23:00.000Z,1.0
2019-01-27T07:28:00.000Z,0.8
2019-01-27T07:33:00.000Z,0.5
2019-01-27T07:38:00.000Z,0.5
2019-01-27T07:43:00.000Z,0.4
2019-01-27T07:48:00.000Z,0.4
2019-01-27T07:53:00.000Z,0.3
2019-01-27T07:58:00.000Z,0.3
2019-01-27T08:03:00.000Z,0.3
2019-01-27T08:08:00.000Z,0.3
2019-01-27T08:13:00.000Z,0.4
2019-01-27T08:18:00.000Z,0.5
2019-01-27T08:23:00.000Z,0.7
2019-01-27T08:28:00.000Z,0.9
2019-01-27T08:33:00.000Z,1.0
2019-01-27T08:38:00.000Z,1.0
2019-01-27T08:43:00.000Z,0.9
2019-01-27T08:48:00.000Z,0.7
2019-01-27T08:53:00.000Z,0.7
2019-01-27T08:58:00.000Z,0.8
2019-01-27T09:03:00.000Z,0.9
2019-01-27T09:08:00.000Z,1.0
2019-01-27T09:13:00.000Z,1.4
2019-01-27T09:18:00.000Z,2.3
2019-01-27T09:23:00.000Z,3.0
2019-01-27T09:28:00.000Z,3.5
2019-01-27T09:33:00.000Z,4.3
2019-01-27T09:38:00.000Z,5.5
2019-01-27T09:43:00.000Z,6.3
2019-01-27T09:48:00.000Z,6.7
2019-01-27T09:53:00.000Z,6.7
2019-01-27T09:58:00.000Z,6.4
2019-01-27T10:03:00.000Z,6.0
2019-01-27T10:08:00.000Z,5.7
2019-01-27T10:13:00.000Z,5.7
2019-01-27T10:18:00.000Z,5.8
2019-01-27T10:23:00.000Z,5.5
2019-01-27T10:28:00.000Z,5.1
2019-01-27T10:33:00.000Z,5.0
2019-01-27T10:38:00.000Z,5.4
2019-01-27T10:43:00.000Z,5.1
2019-01-27T10:48:00.000Z,4.6
2019-01-27T10:53:00.000Z,4.3
2019-01-27T10:58:00.000Z,3.9
2019-01-27T11:03:00.000Z,3.5
2019-01-27T11:08:00.000Z,3.4
2019-01-27T11:13:00.000Z,3.2
2019-01-27T11:18:00.000Z,3.0
2019-01-27T11:23:00.000Z,2.8
2019-01-27T11:28:00.000Z,2.8
2019-01-27T11:33:00.000Z,2.8
2019-01-27T11:38:00.000Z,2.9
2019-01-27T11:44:00.000Z,2.9
2019-01-27T11:49:00.000Z,2.9
2019-01-27T11:54:00.000Z,2.9
2019-01-27T11:59:00.000Z,3.0
2019-01-27T12:04:00.000Z,3.1
2019-01-27T12:09:00.000Z,3.1
2019-01-27T12:14:00.000Z,3.1
2019-01-27T12:19:00.000Z,3.1
2019-01-27T12:24:00.000Z,3.0
2019-01-27T12:29:00.000Z,3.0
2019-01-27T12:34:00.000Z,3.1
2019-01-27T12:39:00.000Z,3.1
2019-01-27T12:44:00.000Z,3.0
2019-01-27T12:49:00.000Z,2.9
2019-01-27T12:54:00.000Z,2.9
2019-01-27T12:59:00.000Z,2.8
2019-01-27T13:04:00.000Z,2.7
2019-01-27T13:09:00.000Z,2.7
2019-01-27T13:14:00.000Z,2.7
2019-01-27T13:19:00.000Z,2.6
2019-01-27T13:24:00.000Z,2.7
2019-01-27T13:29:00.000Z,2.8
2019-01-27T13:34:00.000Z,2.8
2019-01-27T13:39:00.000Z,2.8
2019-01-27T13:44:00.000Z,2.8
2019-01-27T13:49:00.000Z,2.8
2019-01-27T13:54:00.000Z,2.8
2019-01-27T13:59:00.000Z,2.8
2019-01-27T14:04:00.000Z,2.8
2019-01-27T14:09:00.000Z,2.8
2019-01-27T14:14:00.000Z,2.8
2019-01-27T14:19:00.000Z,2.8
2019-01-27T14:24:00.000Z,2.8
2019-01-27T14:29:00.000Z,2.8
2019-01-27T14:34:00.000Z,2.9
2019-01-27T14:39:00.000Z,2.9
2019-01-27T14:44:00.000Z,3.0
2019-01-27T14:49:00.000Z,2.9
2019-01-27T14:54:00.000Z,2.9
2019-01-27T14:59:00.000Z,3.0
2019-01-27T15:04:00.000Z,3.0
2019-01-27T15:09:00.000Z,3.0
2019-01-27T15:14:00.000Z,2.9
2019-01-27T15:19:00.000Z,3.0
2019-01-27T15:24:00.000Z,3.0
2019-01-27T15:29:00.000Z,2.9
2019-01-27T15:34:00.000Z,2.9
2019-01-27T15:39:00.000Z,2.8
2019-01-27T15:44:00.000Z,2.7
2019-01-27T15:49:00.000Z,2.7
2019-01-27T15:54:00.000Z,2.6
2019-01-27T15:59:00.000Z,2.6
2019-01-27T16:04:00.000Z,2.6
2019-01-27T16:09:00.000Z,2.6
2019-01-27T16:14:00.000Z,2.6
2019-01-27T16:19:00.000Z,2.6
2019-01-27T16:24:00.000Z,2.6
2019-01-27T16:29:00.000Z,2.6
2019-01-27T16:34:00.000Z,2.7
2019-01-27T16:39:00.000Z,2.8
2019-01-27T16:44:00.000Z,2.9
2019-01-27T16:49:00.000Z,2.8
2019-01-27T16:54:00.000Z,2.8
2019-01-27T16:59:00.000Z,2.8
2019-01-27T17:04:00.000Z,2.8
2019-01-27T17:09:00.000Z,2.8
2019-01-27T17:14:00.000Z,2.8
2019-01-27T17:19:00.000Z,2.7
2019-01-27T17:25:00.000Z,2.6
2019-01-27T17:30:00.000Z,2.7
2019-01-27T17:35:00.000Z,2.7
2019-01-27T17:40:00.000Z,2.7
2019-01-27T17:45:00.000Z,2.8
2019-01-27T17:50:00.000Z,2.9
2019-01-27T17:55:00.000Z,2.9
2019-01-27T18:00:00.000Z,2.9
2019-01-27T18:05:00.000Z,2.9
2019-01-27T18:10:00.000Z,2.9
2019-01-27T18:15:00.000Z,2.9
2019-01-27T18:20:00.000Z,2.9
2019-01-27T18:25:00.000Z,3.0
2019-01-27T18:30:00.000Z,2.9
2019-01-27T18:35:00.000Z,2.8
2019-01-27T18:40:00.000Z,2.7
2019-01-27T18:45:00.000Z,2.7
2019-01-27T18:50:00.000Z,2.6
2019-01-27T18:55:00.000Z,2.6
2019-01-27T19:00:00.000Z,2.6
2019-01-27T19:05:00.000Z,2.6
2019-01-27T19:10:00.000Z,2.6
2019-01-27T19:15:00.000Z,2.6
2019-01-27T19:20:00.000Z,2.6
2019-01-27T19:25:00.000Z,2.6
2019-01-27T19:30:00.000Z,2.6
2019-01-27T19:35:00.000Z,2.7
2019-01-27T19:40:00.000Z,2.8
2019-01-27T19:45:00.000Z,2.8
2019-01-27T19:50:00.000Z,2.8
2019-01-27T19:55:00.000Z,2.8
2019-01-27T20:00:00.000Z,2.9
2019-01-27T20:05:00.000Z,2.9
2019-01-27T20:10:00.000Z,3.0
2019-01-27T20:15:00.000Z,3.1
2019-01-27T20:20:00.000Z,3.1
2019-01-27T20:25:00.000Z,3.0
2019-01-27T20:30:00.000Z,3.0
2019-01-27T20:35:00.000Z,2.9
2019-01-27T20:40:00.000Z,2.8
2019-01-27T20:45:00.000Z,2.7
2019-01-27T20:50:00.000Z,2.6
2019-01-27T20:55:00.000Z,2.5
2019-01-27T21:00:00.000Z,2.3
2019-01-27T21:05:00.000Z,2.3
2019-01-27T21:10:00.000Z,2.2
2019-01-27T21:15:00.000Z,2.1
2019-01-27T21:20:00.000Z,2.1
2019-01-27T21:25:00.000Z,2.0
2019-01-27T21:30:00.000Z,1.9
2019-01-27T21:35:00.000Z,1.9
2019-01-27T21:40:00.000Z,1.8
2019-01-27T21:45:00.000Z,1.8
2019-01-27T21:50:00.000Z,1.7
2019-01-27T21:55:00.000Z,1.8
2019-01-27T22:00:00.000Z,1.8
2019-01-27T22:05:00.000Z,1.8
2019-01-27T22:10:00.000Z,1.8
2019-01-27T22:15:00.000Z,1.8
2019-01-27T22:20:00.000Z,1.9
2019-01-27T22:25:00.000Z,1.8
2019-01-27T22:30:00.000Z,1.8
2019-01-27T22:35:00.000Z,1.7
2019-01-27T22:40:00.000Z,1.6
2019-01-27T22:45:00.000Z,1.6
2019-01-27T22:50:00.000Z,1.6
2019-01-27T22:56:00.000Z,1.6
2019-01-27T23:01:00.000Z,1.6
2019-01-27T23:06:00.000Z,1.5
2019-01-27T23:11:00.000Z,1.5
2019-01-27T23:16:00.000Z,1.5
2019-01-27T23:21:00.000Z,1.6
2019-01-27T23:26:00.000Z,1.6
2019-01-27T23:31:00.000Z,1.6
2019-01-27T23:36:00.000Z,1.6
2019-01-27T23:41:00.000Z,1.6
2019-01-27T23:46:00.000Z,1.6
2019-01-27T23:51:00.000Z,1.7
2019-01-27T23:56:00.000Z,1.7
